sensor_id;sensor_type;location;lat;lon;timestamp;P1;durP1;ratioP1;P2;durP2;ratioP2
38332;SDS011;25748;46.670;14.272;2022-11-15T00:01:47;31.02;;;11.90;;
38332;SDS011;25748;46.670;14.272;2022-11-15T00:04:13;27.20;;;10.93;;
38332;SDS011;25748;46.670;14.272;2022-11-15T00:06:38;26.65;;;12.02;;
38332;SDS011;25748;46.670;14.272;2022-11-15T00:09:04;25.55;;;11.40;;
38332;SDS011;25748;46.670;14.272;2022-11-15T00:11:30;32.30;;;11.88;;
38332;SDS011;25748;46.670;14.272;2022-11-15T00:13:56;24.65;;;10.02;;
38332;SDS011;25748;46.670;14.272;2022-11-15T00:16:23;29.48;;;10.82;;
38332;SDS011;25748;46.670;14.272;2022-11-15T00:18:49;25.83;;;11.10;;
38332;SDS011;25748;46.670;14.272;2022-11-15T00:21:16;22.90;;;11.52;;
38332;SDS011;25748;46.670;14.272;2022-11-15T00:23:42;32.08;;;11.63;;
38332;SDS011;25748;46.670;14.272;2022-11-15T00:26:12;21.20;;;11.20;;
38332;SDS011;25748;46.670;14.272;2022-11-15T00:28:40;22.60;;;10.68;;
38332;SDS011;25748;46.670;14.272;2022-11-15T00:31:08;20.48;;;9.63;;
38332;SDS011;25748;46.670;14.272;2022-11-15T00:33:36;24.45;;;11.07;;
38332;SDS011;25748;46.670;14.272;2022-11-15T00:36:02;26.92;;;11.52;;
38332;SDS011;25748;46.670;14.272;2022-11-15T00:38:31;22.05;;;10.65;;
38332;SDS011;25748;46.670;14.272;2022-11-15T00:41:01;22.10;;;9.52;;
38332;SDS011;25748;46.670;14.272;2022-11-15T00:43:30;25.77;;;10.55;;
38332;SDS011;25748;46.670;14.272;2022-11-15T00:45:56;26.00;;;11.55;;
38332;SDS011;25748;46.670;14.272;2022-11-15T00:48:22;23.23;;;10.85;;
38332;SDS011;25748;46.670;14.272;2022-11-15T00:50:48;26.45;;;10.93;;
38332;SDS011;25748;46.670;14.272;2022-11-15T00:53:14;28.55;;;10.82;;
38332;SDS011;25748;46.670;14.272;2022-11-15T00:55:40;30.67;;;11.60;;
38332;SDS011;25748;46.670;14.272;2022-11-15T00:58:05;28.77;;;11.35;;
38332;SDS011;25748;46.670;14.272;2022-11-15T01:00:31;25.70;;;11.90;;
38332;SDS011;25748;46.670;14.272;2022-11-15T01:02:57;28.60;;;11.57;;
38332;SDS011;25748;46.670;14.272;2022-11-15T01:05:23;25.48;;;10.55;;
38332;SDS011;25748;46.670;14.272;2022-11-15T01:07:52;26.35;;;11.40;;
38332;SDS011;25748;46.670;14.272;2022-11-15T01:10:18;25.77;;;11.65;;
38332;SDS011;25748;46.670;14.272;2022-11-15T01:12:44;28.00;;;11.93;;
38332;SDS011;25748;46.670;14.272;2022-11-15T01:15:10;23.50;;;9.90;;
38332;SDS011;25748;46.670;14.272;2022-11-15T01:17:35;26.88;;;10.85;;
38332;SDS011;25748;46.670;14.272;2022-11-15T01:20:01;23.15;;;11.02;;
38332;SDS011;25748;46.670;14.272;2022-11-15T01:22:27;24.80;;;10.82;;
38332;SDS011;25748;46.670;14.272;2022-11-15T01:24:53;21.27;;;10.82;;
38332;SDS011;25748;46.670;14.272;2022-11-15T01:27:18;25.60;;;10.15;;
38332;SDS011;25748;46.670;14.272;2022-11-15T01:29:44;24.33;;;10.30;;
38332;SDS011;25748;46.670;14.272;2022-11-15T01:32:10;25.35;;;10.93;;
38332;SDS011;25748;46.670;14.272;2022-11-15T01:34:35;28.38;;;11.93;;
38332;SDS011;25748;46.670;14.272;2022-11-15T01:37:01;31.13;;;12.75;;
38332;SDS011;25748;46.670;14.272;2022-11-15T01:39:27;30.17;;;12.80;;
38332;SDS011;25748;46.670;14.272;2022-11-15T01:41:53;31.35;;;11.48;;
38332;SDS011;25748;46.670;14.272;2022-11-15T01:47:00;24.08;;;11.70;;
38332;SDS011;25748;46.670;14.272;2022-11-15T01:49:31;25.10;;;11.40;;
38332;SDS011;25748;46.670;14.272;2022-11-15T01:52:00;24.90;;;10.23;;
38332;SDS011;25748;46.670;14.272;2022-11-15T01:54:28;26.20;;;11.65;;
38332;SDS011;25748;46.670;14.272;2022-11-15T01:56:56;22.77;;;10.85;;
38332;SDS011;25748;46.670;14.272;2022-11-15T01:59:25;30.73;;;10.75;;
38332;SDS011;25748;46.670;14.272;2022-11-15T02:01:51;26.02;;;12.45;;
38332;SDS011;25748;46.670;14.272;2022-11-15T02:04:32;26.15;;;11.48;;
38332;SDS011;25748;46.670;14.272;2022-11-15T02:07:03;27.42;;;11.98;;
38332;SDS011;25748;46.670;14.272;2022-11-15T02:09:30;25.90;;;11.23;;
38332;SDS011;25748;46.670;14.272;2022-11-15T02:11:56;23.08;;;11.43;;
38332;SDS011;25748;46.670;14.272;2022-11-15T02:14:22;32.70;;;12.95;;
38332;SDS011;25748;46.670;14.272;2022-11-15T02:40:05;27.52;;;11.50;;
38332;SDS011;25748;46.670;14.272;2022-11-15T02:42:45;22.08;;;9.20;;
38332;SDS011;25748;46.670;14.272;2022-11-15T02:45:38;24.42;;;10.43;;
38332;SDS011;25748;46.670;14.272;2022-11-15T02:48:07;26.75;;;11.02;;
38332;SDS011;25748;46.670;14.272;2022-11-15T02:50:36;27.00;;;9.95;;
38332;SDS011;25748;46.670;14.272;2022-11-15T02:53:02;24.52;;;10.73;;
38332;SDS011;25748;46.670;14.272;2022-11-15T02:55:29;26.45;;;11.55;;
38332;SDS011;25748;46.670;14.272;2022-11-15T03:00:35;22.50;;;10.85;;
38332;SDS011;25748;46.670;14.272;2022-11-15T03:03:14;19.10;;;8.95;;
38332;SDS011;25748;46.670;14.272;2022-11-15T03:06:00;21.25;;;9.63;;
38332;SDS011;25748;46.670;14.272;2022-11-15T03:11:33;21.77;;;9.48;;
38332;SDS011;25748;46.670;14.272;2022-11-15T03:14:19;28.33;;;10.40;;
38332;SDS011;25748;46.670;14.272;2022-11-15T03:17:06;25.23;;;10.02;;
38332;SDS011;25748;46.670;14.272;2022-11-15T03:19:44;22.60;;;9.40;;
38332;SDS011;25748;46.670;14.272;2022-11-15T03:22:13;26.70;;;10.15;;
38332;SDS011;25748;46.670;14.272;2022-11-15T03:24:42;18.35;;;8.60;;
38332;SDS011;25748;46.670;14.272;2022-11-15T03:27:12;21.02;;;9.25;;
38332;SDS011;25748;46.670;14.272;2022-11-15T03:29:44;19.58;;;9.27;;
38332;SDS011;25748;46.670;14.272;2022-11-15T03:32:15;23.98;;;9.32;;
38332;SDS011;25748;46.670;14.272;2022-11-15T03:37:36;18.17;;;8.82;;
38332;SDS011;25748;46.670;14.272;2022-11-15T03:40:06;24.33;;;9.82;;
38332;SDS011;25748;46.670;14.272;2022-11-15T03:42:38;24.15;;;10.50;;
38332;SDS011;25748;46.670;14.272;2022-11-15T03:45:16;25.90;;;9.60;;
38332;SDS011;25748;46.670;14.272;2022-11-15T03:47:51;21.75;;;10.32;;
38332;SDS011;25748;46.670;14.272;2022-11-15T03:50:30;21.02;;;9.18;;
38332;SDS011;25748;46.670;14.272;2022-11-15T03:52:56;21.35;;;9.75;;
38332;SDS011;25748;46.670;14.272;2022-11-15T03:55:23;24.98;;;10.32;;
38332;SDS011;25748;46.670;14.272;2022-11-15T03:57:52;22.10;;;9.30;;
38332;SDS011;25748;46.670;14.272;2022-11-15T04:00:23;21.90;;;9.95;;
38332;SDS011;25748;46.670;14.272;2022-11-15T04:02:49;21.95;;;9.50;;
38332;SDS011;25748;46.670;14.272;2022-11-15T04:05:15;24.60;;;9.93;;
38332;SDS011;25748;46.670;14.272;2022-11-15T04:07:42;22.77;;;9.48;;
38332;SDS011;25748;46.670;14.272;2022-11-15T04:10:10;21.88;;;9.57;;
38332;SDS011;25748;46.670;14.272;2022-11-15T04:12:38;23.83;;;9.55;;
38332;SDS011;25748;46.670;14.272;2022-11-15T04:15:10;22.92;;;9.82;;
38332;SDS011;25748;46.670;14.272;2022-11-15T04:20:12;18.90;;;8.30;;
38332;SDS011;25748;46.670;14.272;2022-11-15T04:22:59;21.13;;;9.68;;
38332;SDS011;25748;46.670;14.272;2022-11-15T04:25:44;19.40;;;9.32;;
38332;SDS011;25748;46.670;14.272;2022-11-15T04:28:11;20.33;;;9.48;;
38332;SDS011;25748;46.670;14.272;2022-11-15T04:30:37;19.88;;;9.13;;
38332;SDS011;25748;46.670;14.272;2022-11-15T04:33:03;23.60;;;9.95;;
38332;SDS011;25748;46.670;14.272;2022-11-15T04:35:29;25.13;;;10.23;;
38332;SDS011;25748;46.670;14.272;2022-11-15T04:37:55;25.02;;;10.10;;
38332;SDS011;25748;46.670;14.272;2022-11-15T04:40:21;26.23;;;10.50;;
38332;SDS011;25748;46.670;14.272;2022-11-15T04:42:47;25.55;;;10.10;;
38332;SDS011;25748;46.670;14.272;2022-11-15T04:45:13;22.98;;;10.13;;
38332;SDS011;25748;46.670;14.272;2022-11-15T04:47:39;30.27;;;11.25;;
38332;SDS011;25748;46.670;14.272;2022-11-15T04:50:05;19.48;;;9.07;;
38332;SDS011;25748;46.670;14.272;2022-11-15T04:52:31;26.50;;;10.73;;
38332;SDS011;25748;46.670;14.272;2022-11-15T04:54:56;18.95;;;8.05;;
38332;SDS011;25748;46.670;14.272;2022-11-15T04:57:22;22.60;;;8.52;;
38332;SDS011;25748;46.670;14.272;2022-11-15T04:59:48;21.77;;;9.57;;
38332;SDS011;25748;46.670;14.272;2022-11-15T05:02:13;17.58;;;7.80;;
38332;SDS011;25748;46.670;14.272;2022-11-15T05:04:39;21.90;;;8.32;;
38332;SDS011;25748;46.670;14.272;2022-11-15T05:07:05;23.92;;;8.88;;
38332;SDS011;25748;46.670;14.272;2022-11-15T05:09:30;20.92;;;8.75;;
38332;SDS011;25748;46.670;14.272;2022-11-15T05:11:56;15.88;;;8.25;;
38332;SDS011;25748;46.670;14.272;2022-11-15T05:14:22;17.33;;;8.00;;
38332;SDS011;25748;46.670;14.272;2022-11-15T05:16:48;23.13;;;8.75;;
38332;SDS011;25748;46.670;14.272;2022-11-15T05:19:14;17.95;;;8.10;;
38332;SDS011;25748;46.670;14.272;2022-11-15T05:21:40;18.17;;;8.02;;
38332;SDS011;25748;46.670;14.272;2022-11-15T05:24:06;15.80;;;6.80;;
38332;SDS011;25748;46.670;14.272;2022-11-15T05:26:31;15.88;;;7.25;;
38332;SDS011;25748;46.670;14.272;2022-11-15T05:28:58;19.70;;;8.27;;
38332;SDS011;25748;46.670;14.272;2022-11-15T05:31:24;15.32;;;7.20;;
38332;SDS011;25748;46.670;14.272;2022-11-15T05:33:51;18.23;;;8.55;;
38332;SDS011;25748;46.670;14.272;2022-11-15T05:38:46;15.25;;;7.10;;
38332;SDS011;25748;46.670;14.272;2022-11-15T05:41:13;15.57;;;7.47;;
38332;SDS011;25748;46.670;14.272;2022-11-15T05:43:41;16.55;;;7.57;;
38332;SDS011;25748;46.670;14.272;2022-11-15T05:46:08;17.48;;;8.00;;
38332;SDS011;25748;46.670;14.272;2022-11-15T05:48:34;18.13;;;7.82;;
38332;SDS011;25748;46.670;14.272;2022-11-15T05:51:02;16.60;;;7.07;;
38332;SDS011;25748;46.670;14.272;2022-11-15T05:53:30;19.95;;;7.38;;
38332;SDS011;25748;46.670;14.272;2022-11-15T05:55:56;19.38;;;8.57;;
38332;SDS011;25748;46.670;14.272;2022-11-15T05:58:22;19.55;;;8.18;;
38332;SDS011;25748;46.670;14.272;2022-11-15T06:00:47;16.75;;;7.68;;
38332;SDS011;25748;46.670;14.272;2022-11-15T06:03:13;23.05;;;8.02;;
38332;SDS011;25748;46.670;14.272;2022-11-15T06:05:39;17.30;;;8.60;;
38332;SDS011;25748;46.670;14.272;2022-11-15T06:08:05;17.55;;;9.18;;
38332;SDS011;25748;46.670;14.272;2022-11-15T06:10:31;19.30;;;8.20;;
38332;SDS011;25748;46.670;14.272;2022-11-15T06:12:58;19.30;;;9.30;;
38332;SDS011;25748;46.670;14.272;2022-11-15T06:15:24;17.00;;;8.85;;
38332;SDS011;25748;46.670;14.272;2022-11-15T06:17:50;23.13;;;8.75;;
38332;SDS011;25748;46.670;14.272;2022-11-15T06:20:16;13.75;;;7.50;;
38332;SDS011;25748;46.670;14.272;2022-11-15T06:22:42;18.85;;;7.85;;
38332;SDS011;25748;46.670;14.272;2022-11-15T06:25:08;15.77;;;7.57;;
38332;SDS011;25748;46.670;14.272;2022-11-15T06:27:34;18.35;;;8.52;;
38332;SDS011;25748;46.670;14.272;2022-11-15T06:29:59;18.48;;;8.68;;
38332;SDS011;25748;46.670;14.272;2022-11-15T06:32:25;18.38;;;7.70;;
38332;SDS011;25748;46.670;14.272;2022-11-15T06:34:51;17.08;;;7.78;;
38332;SDS011;25748;46.670;14.272;2022-11-15T06:37:16;17.92;;;7.72;;
38332;SDS011;25748;46.670;14.272;2022-11-15T06:39:42;18.88;;;7.80;;
38332;SDS011;25748;46.670;14.272;2022-11-15T06:42:08;16.05;;;7.57;;
38332;SDS011;25748;46.670;14.272;2022-11-15T06:44:34;18.40;;;8.02;;
38332;SDS011;25748;46.670;14.272;2022-11-15T06:46:59;17.13;;;8.02;;
38332;SDS011;25748;46.670;14.272;2022-11-15T06:49:25;15.60;;;7.50;;
38332;SDS011;25748;46.670;14.272;2022-11-15T06:51:51;19.30;;;8.20;;
38332;SDS011;25748;46.670;14.272;2022-11-15T06:54:16;15.10;;;7.43;;
38332;SDS011;25748;46.670;14.272;2022-11-15T06:56:42;15.95;;;6.70;;
38332;SDS011;25748;46.670;14.272;2022-11-15T06:59:08;19.23;;;6.75;;
38332;SDS011;25748;46.670;14.272;2022-11-15T07:01:33;20.55;;;7.00;;
38332;SDS011;25748;46.670;14.272;2022-11-15T07:03:59;13.82;;;6.13;;
38332;SDS011;25748;46.670;14.272;2022-11-15T07:06:24;14.15;;;6.80;;
38332;SDS011;25748;46.670;14.272;2022-11-15T07:08:50;21.17;;;7.22;;
38332;SDS011;25748;46.670;14.272;2022-11-15T07:11:16;13.65;;;6.97;;
38332;SDS011;25748;46.670;14.272;2022-11-15T07:13:41;13.35;;;7.13;;
38332;SDS011;25748;46.670;14.272;2022-11-15T07:16:08;12.55;;;6.75;;
38332;SDS011;25748;46.670;14.272;2022-11-15T07:18:38;18.17;;;7.10;;
38332;SDS011;25748;46.670;14.272;2022-11-15T07:21:05;12.70;;;6.78;;
38332;SDS011;25748;46.670;14.272;2022-11-15T07:23:33;11.98;;;5.50;;
38332;SDS011;25748;46.670;14.272;2022-11-15T07:26:01;12.57;;;6.05;;
38332;SDS011;25748;46.670;14.272;2022-11-15T07:28:27;7.20;;;4.50;;
38332;SDS011;25748;46.670;14.272;2022-11-15T07:30:53;12.65;;;5.20;;
38332;SDS011;25748;46.670;14.272;2022-11-15T07:33:19;11.48;;;4.75;;
38332;SDS011;25748;46.670;14.272;2022-11-15T07:35:45;8.43;;;4.35;;
38332;SDS011;25748;46.670;14.272;2022-11-15T07:38:14;12.30;;;4.55;;
38332;SDS011;25748;46.670;14.272;2022-11-15T07:40:40;10.00;;;4.47;;
38332;SDS011;25748;46.670;14.272;2022-11-15T07:43:06;7.97;;;4.20;;
38332;SDS011;25748;46.670;14.272;2022-11-15T07:45:33;7.05;;;4.25;;
38332;SDS011;25748;46.670;14.272;2022-11-15T07:47:59;9.75;;;5.63;;
38332;SDS011;25748;46.670;14.272;2022-11-15T07:50:25;9.30;;;5.15;;
38332;SDS011;25748;46.670;14.272;2022-11-15T07:52:58;9.93;;;5.10;;
38332;SDS011;25748;46.670;14.272;2022-11-15T07:55:25;10.27;;;5.50;;
38332;SDS011;25748;46.670;14.272;2022-11-15T07:57:52;10.60;;;5.97;;
38332;SDS011;25748;46.670;14.272;2022-11-15T08:00:18;14.63;;;5.82;;
38332;SDS011;25748;46.670;14.272;2022-11-15T08:02:44;12.55;;;6.38;;
38332;SDS011;25748;46.670;14.272;2022-11-15T08:05:10;14.15;;;5.90;;
38332;SDS011;25748;46.670;14.272;2022-11-15T08:07:36;12.95;;;6.57;;
38332;SDS011;25748;46.670;14.272;2022-11-15T08:10:03;12.85;;;6.63;;
38332;SDS011;25748;46.670;14.272;2022-11-15T08:12:31;16.55;;;7.43;;
38332;SDS011;25748;46.670;14.272;2022-11-15T08:14:56;14.38;;;6.68;;
38332;SDS011;25748;46.670;14.272;2022-11-15T08:17:23;17.38;;;6.85;;
38332;SDS011;25748;46.670;14.272;2022-11-15T08:19:49;11.57;;;5.97;;
38332;SDS011;25748;46.670;14.272;2022-11-15T08:22:15;12.15;;;6.43;;
38332;SDS011;25748;46.670;14.272;2022-11-15T08:24:41;14.75;;;6.97;;
38332;SDS011;25748;46.670;14.272;2022-11-15T08:27:06;13.30;;;6.03;;
38332;SDS011;25748;46.670;14.272;2022-11-15T08:29:40;12.00;;;6.03;;
38332;SDS011;25748;46.670;14.272;2022-11-15T08:32:07;15.85;;;7.18;;
38332;SDS011;25748;46.670;14.272;2022-11-15T08:34:33;13.15;;;6.45;;
38332;SDS011;25748;46.670;14.272;2022-11-15T08:36:58;11.02;;;6.20;;
38332;SDS011;25748;46.670;14.272;2022-11-15T08:39:24;12.93;;;6.03;;
38332;SDS011;25748;46.670;14.272;2022-11-15T08:41:50;11.02;;;5.50;;
38332;SDS011;25748;46.670;14.272;2022-11-15T08:44:15;14.07;;;5.82;;
38332;SDS011;25748;46.670;14.272;2022-11-15T08:46:41;10.90;;;5.78;;
38332;SDS011;25748;46.670;14.272;2022-11-15T08:49:06;11.77;;;5.97;;
38332;SDS011;25748;46.670;14.272;2022-11-15T08:51:32;14.00;;;6.45;;
38332;SDS011;25748;46.670;14.272;2022-11-15T08:53:58;10.43;;;6.15;;
38332;SDS011;25748;46.670;14.272;2022-11-15T08:56:23;12.25;;;6.55;;
38332;SDS011;25748;46.670;14.272;2022-11-15T08:58:49;13.30;;;7.13;;
38332;SDS011;25748;46.670;14.272;2022-11-15T09:01:16;14.95;;;6.63;;
38332;SDS011;25748;46.670;14.272;2022-11-15T09:03:43;14.18;;;6.97;;
38332;SDS011;25748;46.670;14.272;2022-11-15T09:06:09;14.00;;;6.30;;
38332;SDS011;25748;46.670;14.272;2022-11-15T09:08:35;12.70;;;6.72;;
38332;SDS011;25748;46.670;14.272;2022-11-15T09:11:04;15.25;;;6.45;;
38332;SDS011;25748;46.670;14.272;2022-11-15T09:13:31;13.15;;;6.20;;
38332;SDS011;25748;46.670;14.272;2022-11-15T09:15:57;13.43;;;7.05;;
38332;SDS011;25748;46.670;14.272;2022-11-15T09:18:24;14.32;;;5.82;;
38332;SDS011;25748;46.670;14.272;2022-11-15T09:20:50;13.57;;;6.75;;
38332;SDS011;25748;46.670;14.272;2022-11-15T09:23:15;12.32;;;5.90;;
38332;SDS011;25748;46.670;14.272;2022-11-15T09:25:41;12.25;;;6.60;;
38332;SDS011;25748;46.670;14.272;2022-11-15T09:28:07;14.38;;;5.68;;
38332;SDS011;25748;46.670;14.272;2022-11-15T09:30:33;11.55;;;6.40;;
38332;SDS011;25748;46.670;14.272;2022-11-15T09:33:05;11.45;;;5.35;;
38332;SDS011;25748;46.670;14.272;2022-11-15T09:35:32;12.02;;;5.72;;
38332;SDS011;25748;46.670;14.272;2022-11-15T09:37:58;11.73;;;5.65;;
38332;SDS011;25748;46.670;14.272;2022-11-15T09:40:24;12.48;;;5.97;;
38332;SDS011;25748;46.670;14.272;2022-11-15T09:45:53;11.30;;;5.40;;
38332;SDS011;25748;46.670;14.272;2022-11-15T09:48:47;9.55;;;5.38;;
38332;SDS011;25748;46.670;14.272;2022-11-15T09:51:22;12.10;;;4.75;;
38332;SDS011;25748;46.670;14.272;2022-11-15T09:53:56;10.13;;;4.75;;
38332;SDS011;25748;46.670;14.272;2022-11-15T09:56:25;8.63;;;4.82;;
38332;SDS011;25748;46.670;14.272;2022-11-15T10:04:22;7.45;;;3.95;;
38332;SDS011;25748;46.670;14.272;2022-11-15T10:09:38;7.57;;;3.75;;
38332;SDS011;25748;46.670;14.272;2022-11-15T10:12:14;8.05;;;4.28;;
38332;SDS011;25748;46.670;14.272;2022-11-15T10:14:41;7.90;;;3.83;;
38332;SDS011;25748;46.670;14.272;2022-11-15T10:20:02;6.60;;;3.35;;
38332;SDS011;25748;46.670;14.272;2022-11-15T10:27:34;7.43;;;3.10;;
38332;SDS011;25748;46.670;14.272;2022-11-15T10:30:00;6.22;;;3.42;;
38332;SDS011;25748;46.670;14.272;2022-11-15T10:32:26;7.07;;;2.88;;
38332;SDS011;25748;46.670;14.272;2022-11-15T10:34:52;5.53;;;2.80;;
38332;SDS011;25748;46.670;14.272;2022-11-15T10:37:28;5.93;;;2.90;;
38332;SDS011;25748;46.670;14.272;2022-11-15T10:40:05;5.60;;;3.22;;
38332;SDS011;25748;46.670;14.272;2022-11-15T10:42:39;5.22;;;2.60;;
38332;SDS011;25748;46.670;14.272;2022-11-15T10:45:22;4.55;;;2.80;;
38332;SDS011;25748;46.670;14.272;2022-11-15T10:47:53;9.73;;;2.75;;
38332;SDS011;25748;46.670;14.272;2022-11-15T10:50:43;4.43;;;2.35;;
38332;SDS011;25748;46.670;14.272;2022-11-15T10:53:36;4.97;;;2.78;;
38332;SDS011;25748;46.670;14.272;2022-11-15T10:56:02;5.15;;;2.08;;
38332;SDS011;25748;46.670;14.272;2022-11-15T10:58:36;5.70;;;2.50;;
38332;SDS011;25748;46.670;14.272;2022-11-15T11:03:39;4.10;;;2.38;;
38332;SDS011;25748;46.670;14.272;2022-11-15T11:06:13;3.42;;;2.22;;
38332;SDS011;25748;46.670;14.272;2022-11-15T11:08:56;8.80;;;3.78;;
38332;SDS011;25748;46.670;14.272;2022-11-15T11:14:12;4.38;;;2.30;;
38332;SDS011;25748;46.670;14.272;2022-11-15T11:16:43;4.22;;;2.50;;
38332;SDS011;25748;46.670;14.272;2022-11-15T11:19:38;4.32;;;2.30;;
38332;SDS011;25748;46.670;14.272;2022-11-15T11:24:49;3.80;;;1.98;;
38332;SDS011;25748;46.670;14.272;2022-11-15T11:33:20;2.92;;;1.58;;
38332;SDS011;25748;46.670;14.272;2022-11-15T11:43:54;2.47;;;1.30;;
38332;SDS011;25748;46.670;14.272;2022-11-15T11:49:18;2.38;;;1.60;;
38332;SDS011;25748;46.670;14.272;2022-11-15T11:57:00;3.25;;;1.40;;
38332;SDS011;25748;46.670;14.272;2022-11-15T12:00:09;2.10;;;1.33;;
38332;SDS011;25748;46.670;14.272;2022-11-15T12:02:40;2.80;;;1.70;;
38332;SDS011;25748;46.670;14.272;2022-11-15T12:11:42;3.45;;;1.63;;
38332;SDS011;25748;46.670;14.272;2022-11-15T12:14:49;3.05;;;1.40;;
38332;SDS011;25748;46.670;14.272;2022-11-15T12:17:12;8.23;;;1.80;;
38332;SDS011;25748;46.670;14.272;2022-11-15T12:19:39;3.10;;;1.40;;
38332;SDS011;25748;46.670;14.272;2022-11-15T12:25:00;3.20;;;1.38;;
38332;SDS011;25748;46.670;14.272;2022-11-15T12:30:42;1.83;;;1.20;;
38332;SDS011;25748;46.670;14.272;2022-11-15T12:36:43;2.53;;;1.48;;
38332;SDS011;25748;46.670;14.272;2022-11-15T12:39:00;3.22;;;1.33;;
38332;SDS011;25748;46.670;14.272;2022-11-15T12:43:54;2.00;;;1.02;;
38332;SDS011;25748;46.670;14.272;2022-11-15T13:02:30;2.05;;;1.25;;
38332;SDS011;25748;46.670;14.272;2022-11-15T13:17:42;1.33;;;0.73;;
38332;SDS011;25748;46.670;14.272;2022-11-15T13:22:51;1.30;;;0.90;;
38332;SDS011;25748;46.670;14.272;2022-11-15T13:30:40;1.98;;;0.82;;
38332;SDS011;25748;46.670;14.272;2022-11-15T13:33:18;8.68;;;1.10;;
38332;SDS011;25748;46.670;14.272;2022-11-15T13:36:06;1.77;;;0.80;;
38332;SDS011;25748;46.670;14.272;2022-11-15T13:38:40;1.60;;;1.00;;
38332;SDS011;25748;46.670;14.272;2022-11-15T13:41:27;1.88;;;0.90;;
38332;SDS011;25748;46.670;14.272;2022-11-15T13:43:59;2.88;;;1.00;;
38332;SDS011;25748;46.670;14.272;2022-11-15T13:46:26;1.48;;;0.70;;
38332;SDS011;25748;46.670;14.272;2022-11-15T13:54:02;2.92;;;1.20;;
38332;SDS011;25748;46.670;14.272;2022-11-15T13:56:37;2.03;;;0.95;;
38332;SDS011;25748;46.670;14.272;2022-11-15T13:59:25;1.35;;;0.82;;
38332;SDS011;25748;46.670;14.272;2022-11-15T14:01:58;2.42;;;1.20;;
38332;SDS011;25748;46.670;14.272;2022-11-15T14:04:27;1.88;;;1.13;;
38332;SDS011;25748;46.670;14.272;2022-11-15T14:07:03;2.13;;;1.10;;
38332;SDS011;25748;46.670;14.272;2022-11-15T14:09:58;2.08;;;0.90;;
38332;SDS011;25748;46.670;14.272;2022-11-15T14:13:01;4.57;;;1.02;;
38332;SDS011;25748;46.670;14.272;2022-11-15T14:18:54;1.67;;;0.80;;
38332;SDS011;25748;46.670;14.272;2022-11-15T14:24:42;2.15;;;1.08;;
38332;SDS011;25748;46.670;14.272;2022-11-15T14:27:16;2.50;;;1.08;;
38332;SDS011;25748;46.670;14.272;2022-11-15T14:29:52;2.60;;;1.20;;
38332;SDS011;25748;46.670;14.272;2022-11-15T14:32:19;1.73;;;1.20;;
38332;SDS011;25748;46.670;14.272;2022-11-15T14:34:47;2.40;;;1.15;;
38332;SDS011;25748;46.670;14.272;2022-11-15T14:37:30;1.80;;;1.10;;
38332;SDS011;25748;46.670;14.272;2022-11-15T14:40:03;2.75;;;1.17;;
38332;SDS011;25748;46.670;14.272;2022-11-15T14:42:30;2.22;;;0.98;;
38332;SDS011;25748;46.670;14.272;2022-11-15T14:44:56;3.58;;;1.65;;
38332;SDS011;25748;46.670;14.272;2022-11-15T14:47:21;2.67;;;1.30;;
38332;SDS011;25748;46.670;14.272;2022-11-15T14:49:47;2.95;;;1.63;;
38332;SDS011;25748;46.670;14.272;2022-11-15T14:52:23;2.28;;;1.00;;
38332;SDS011;25748;46.670;14.272;2022-11-15T14:54:54;2.83;;;1.60;;
38332;SDS011;25748;46.670;14.272;2022-11-15T14:57:20;3.30;;;1.58;;
38332;SDS011;25748;46.670;14.272;2022-11-15T14:59:47;3.85;;;1.63;;
38332;SDS011;25748;46.670;14.272;2022-11-15T15:02:30;2.67;;;1.48;;
38332;SDS011;25748;46.670;14.272;2022-11-15T15:04:56;4.20;;;1.55;;
38332;SDS011;25748;46.670;14.272;2022-11-15T15:07:25;2.45;;;1.10;;
38332;SDS011;25748;46.670;14.272;2022-11-15T15:09:51;3.00;;;1.58;;
38332;SDS011;25748;46.670;14.272;2022-11-15T15:12:18;4.85;;;1.63;;
38332;SDS011;25748;46.670;14.272;2022-11-15T15:14:48;17.15;;;2.47;;
38332;SDS011;25748;46.670;14.272;2022-11-15T15:17:15;11.82;;;3.33;;
38332;SDS011;25748;46.670;14.272;2022-11-15T15:19:42;5.57;;;1.67;;
38332;SDS011;25748;46.670;14.272;2022-11-15T15:22:15;4.88;;;1.88;;
38332;SDS011;25748;46.670;14.272;2022-11-15T15:24:43;2.03;;;1.20;;
38332;SDS011;25748;46.670;14.272;2022-11-15T15:27:10;2.78;;;1.20;;
38332;SDS011;25748;46.670;14.272;2022-11-15T15:29:35;2.83;;;1.30;;
38332;SDS011;25748;46.670;14.272;2022-11-15T15:32:01;1.92;;;1.20;;
38332;SDS011;25748;46.670;14.272;2022-11-15T15:34:27;2.42;;;1.58;;
38332;SDS011;25748;46.670;14.272;2022-11-15T15:39:53;7.47;;;1.73;;
38332;SDS011;25748;46.670;14.272;2022-11-15T15:42:20;2.13;;;1.08;;
38332;SDS011;25748;46.670;14.272;2022-11-15T15:44:47;2.90;;;1.10;;
38332;SDS011;25748;46.670;14.272;2022-11-15T15:47:14;5.45;;;1.63;;
38332;SDS011;25748;46.670;14.272;2022-11-15T15:49:41;2.25;;;1.13;;
38332;SDS011;25748;46.670;14.272;2022-11-15T15:52:07;6.38;;;1.42;;
38332;SDS011;25748;46.670;14.272;2022-11-15T15:54:33;3.13;;;1.40;;
38332;SDS011;25748;46.670;14.272;2022-11-15T15:56:59;4.38;;;1.65;;
38332;SDS011;25748;46.670;14.272;2022-11-15T15:59:24;3.72;;;1.63;;
38332;SDS011;25748;46.670;14.272;2022-11-15T16:01:50;3.35;;;1.60;;
38332;SDS011;25748;46.670;14.272;2022-11-15T16:04:16;3.47;;;1.65;;
38332;SDS011;25748;46.670;14.272;2022-11-15T16:06:41;5.55;;;1.45;;
38332;SDS011;25748;46.670;14.272;2022-11-15T16:09:13;2.95;;;1.50;;
38332;SDS011;25748;46.670;14.272;2022-11-15T16:11:40;5.60;;;1.58;;
38332;SDS011;25748;46.670;14.272;2022-11-15T16:14:06;4.32;;;1.98;;
38332;SDS011;25748;46.670;14.272;2022-11-15T16:16:33;3.75;;;2.00;;
38332;SDS011;25748;46.670;14.272;2022-11-15T16:18:59;8.45;;;1.77;;
38332;SDS011;25748;46.670;14.272;2022-11-15T16:21:26;4.13;;;2.10;;
38332;SDS011;25748;46.670;14.272;2022-11-15T16:23:52;3.97;;;1.58;;
38332;SDS011;25748;46.670;14.272;2022-11-15T16:26:20;3.47;;;1.55;;
38332;SDS011;25748;46.670;14.272;2022-11-15T16:28:49;3.33;;;1.55;;
38332;SDS011;25748;46.670;14.272;2022-11-15T16:31:18;2.97;;;1.45;;
38332;SDS011;25748;46.670;14.272;2022-11-15T16:33:46;3.20;;;1.88;;
38332;SDS011;25748;46.670;14.272;2022-11-15T16:36:21;4.32;;;2.13;;
38332;SDS011;25748;46.670;14.272;2022-11-15T16:38:50;3.92;;;1.60;;
38332;SDS011;25748;46.670;14.272;2022-11-15T16:41:16;3.05;;;1.92;;
38332;SDS011;25748;46.670;14.272;2022-11-15T16:43:49;4.45;;;2.38;;
38332;SDS011;25748;46.670;14.272;2022-11-15T16:46:17;3.80;;;1.83;;
38332;SDS011;25748;46.670;14.272;2022-11-15T16:48:45;4.35;;;1.70;;
38332;SDS011;25748;46.670;14.272;2022-11-15T16:51:11;10.20;;;2.05;;
38332;SDS011;25748;46.670;14.272;2022-11-15T16:53:39;4.55;;;1.80;;
38332;SDS011;25748;46.670;14.272;2022-11-15T16:56:18;4.22;;;2.00;;
38332;SDS011;25748;46.670;14.272;2022-11-15T16:58:50;4.47;;;2.35;;
38332;SDS011;25748;46.670;14.272;2022-11-15T17:01:18;5.18;;;2.15;;
38332;SDS011;25748;46.670;14.272;2022-11-15T17:03:46;3.22;;;1.80;;
38332;SDS011;25748;46.670;14.272;2022-11-15T17:06:12;4.20;;;2.28;;
38332;SDS011;25748;46.670;14.272;2022-11-15T17:08:39;4.43;;;2.03;;
38332;SDS011;25748;46.670;14.272;2022-11-15T17:11:05;3.20;;;1.63;;
38332;SDS011;25748;46.670;14.272;2022-11-15T17:13:32;7.50;;;2.10;;